sensor_id;sensor_type;location;lat;lon;timestamp;P1;durP1;ratioP1;P2;durP2;ratioP2
7657;SDS011;8462;53.156;8.220;2024-03-23T00:54:59;17.77;;;5.77;;
7657;SDS011;8462;53.156;8.220;2024-03-23T00:57:27;20.97;;;4.63;;
7657;SDS011;8462;53.156;8.220;2024-03-23T00:59:54;16.67;;;5.43;;
7657;SDS011;8462;53.156;8.220;2024-03-23T01:02:21;13.93;;;4.90;;
7657;SDS011;8462;53.156;8.220;2024-03-23T01:04:48;16.90;;;4.83;;
7657;SDS011;8462;53.156;8.220;2024-03-23T01:07:16;21.20;;;5.30;;
7657;SDS011;8462;53.156;8.220;2024-03-23T01:09:44;19.97;;;5.63;;
7657;SDS011;8462;53.156;8.220;2024-03-23T01:12:13;17.53;;;5.10;;
7657;SDS011;8462;53.156;8.220;2024-03-23T01:14:39;16.80;;;4.63;;
7657;SDS011;8462;53.156;8.220;2024-03-23T01:17:07;18.83;;;5.10;;
7657;SDS011;8462;53.156;8.220;2024-03-23T01:19:34;15.63;;;4.97;;
7657;SDS011;8462;53.156;8.220;2024-03-23T01:22:01;18.43;;;4.63;;
7657;SDS011;8462;53.156;8.220;2024-03-23T01:24:30;17.90;;;4.73;;
7657;SDS011;8462;53.156;8.220;2024-03-23T01:26:57;17.03;;;5.13;;
7657;SDS011;8462;53.156;8.220;2024-03-23T01:29:26;26.57;;;6.30;;
7657;SDS011;8462;53.156;8.220;2024-03-23T01:31:53;22.40;;;5.50;;
7657;SDS011;8462;53.156;8.220;2024-03-23T01:34:27;20.97;;;5.20;;
7657;SDS011;8462;53.156;8.220;2024-03-23T01:37:00;21.80;;;5.50;;
7657;SDS011;8462;53.156;8.220;2024-03-23T01:39:28;20.63;;;4.97;;
7657;SDS011;8462;53.156;8.220;2024-03-23T01:41:56;21.53;;;5.30;;
7657;SDS011;8462;53.156;8.220;2024-03-23T01:44:27;18.50;;;5.20;;
7657;SDS011;8462;53.156;8.220;2024-03-23T01:46:54;22.80;;;5.57;;
7657;SDS011;8462;53.156;8.220;2024-03-23T01:49:21;17.97;;;5.20;;
7657;SDS011;8462;53.156;8.220;2024-03-23T01:51:49;25.13;;;6.20;;
7657;SDS011;8462;53.156;8.220;2024-03-23T01:54:16;21.47;;;5.40;;
7657;SDS011;8462;53.156;8.220;2024-03-23T01:56:46;18.97;;;5.67;;
7657;SDS011;8462;53.156;8.220;2024-03-23T01:59:15;17.53;;;5.03;;
7657;SDS011;8462;53.156;8.220;2024-03-23T02:01:45;22.90;;;5.23;;
7657;SDS011;8462;53.156;8.220;2024-03-23T02:04:12;19.23;;;5.23;;
7657;SDS011;8462;53.156;8.220;2024-03-23T02:06:45;24.23;;;5.63;;
7657;SDS011;8462;53.156;8.220;2024-03-23T02:09:12;23.00;;;5.60;;
7657;SDS011;8462;53.156;8.220;2024-03-23T02:11:41;17.27;;;5.67;;
7657;SDS011;8462;53.156;8.220;2024-03-23T02:14:08;19.03;;;5.37;;
7657;SDS011;8462;53.156;8.220;2024-03-23T02:16:36;21.77;;;4.70;;
7657;SDS011;8462;53.156;8.220;2024-03-23T02:19:05;19.40;;;4.80;;
7657;SDS011;8462;53.156;8.220;2024-03-23T02:21:32;17.30;;;5.30;;
7657;SDS011;8462;53.156;8.220;2024-03-23T02:24:01;20.33;;;5.33;;
7657;SDS011;8462;53.156;8.220;2024-03-23T02:26:30;20.03;;;4.93;;
7657;SDS011;8462;53.156;8.220;2024-03-23T02:28:58;16.60;;;5.13;;
7657;SDS011;8462;53.156;8.220;2024-03-23T02:31:31;19.63;;;5.37;;
7657;SDS011;8462;53.156;8.220;2024-03-23T02:34:00;23.43;;;5.33;;
7657;SDS011;8462;53.156;8.220;2024-03-23T02:36:28;29.27;;;5.40;;
7657;SDS011;8462;53.156;8.220;2024-03-23T02:38:58;23.00;;;5.07;;
7657;SDS011;8462;53.156;8.220;2024-03-23T02:41:28;23.50;;;5.33;;
7657;SDS011;8462;53.156;8.220;2024-03-23T02:43:56;21.47;;;4.47;;
7657;SDS011;8462;53.156;8.220;2024-03-23T02:46:25;17.50;;;4.60;;
7657;SDS011;8462;53.156;8.220;2024-03-23T02:48:51;23.57;;;5.43;;
7657;SDS011;8462;53.156;8.220;2024-03-23T02:51:19;21.20;;;5.20;;
7657;SDS011;8462;53.156;8.220;2024-03-23T02:53:46;18.60;;;5.47;;
7657;SDS011;8462;53.156;8.220;2024-03-23T02:56:16;17.80;;;5.43;;
7657;SDS011;8462;53.156;8.220;2024-03-23T02:58:45;22.07;;;5.73;;
7657;SDS011;8462;53.156;8.220;2024-03-23T03:01:13;23.17;;;6.53;;
7657;SDS011;8462;53.156;8.220;2024-03-23T03:03:41;19.03;;;5.03;;
7657;SDS011;8462;53.156;8.220;2024-03-23T03:09:50;20.50;;;4.80;;
7657;SDS011;8462;53.156;8.220;2024-03-23T03:12:17;23.20;;;5.17;;
7657;SDS011;8462;53.156;8.220;2024-03-23T03:14:46;15.67;;;4.67;;
7657;SDS011;8462;53.156;8.220;2024-03-23T03:17:14;22.53;;;5.00;;
7657;SDS011;8462;53.156;8.220;2024-03-23T03:19:41;25.03;;;5.77;;
7657;SDS011;8462;53.156;8.220;2024-03-23T03:22:09;16.37;;;5.60;;
7657;SDS011;8462;53.156;8.220;2024-03-23T03:24:38;18.03;;;4.80;;
7657;SDS011;8462;53.156;8.220;2024-03-23T03:27:11;18.17;;;6.03;;
7657;SDS011;8462;53.156;8.220;2024-03-23T03:29:38;26.83;;;6.07;;
7657;SDS011;8462;53.156;8.220;2024-03-23T03:32:08;22.67;;;5.97;;
7657;SDS011;8462;53.156;8.220;2024-03-23T03:34:40;18.97;;;5.23;;
7657;SDS011;8462;53.156;8.220;2024-03-23T03:37:14;17.20;;;5.03;;
7657;SDS011;8462;53.156;8.220;2024-03-23T03:39:41;22.23;;;5.77;;
7657;SDS011;8462;53.156;8.220;2024-03-23T03:42:11;20.37;;;6.50;;
7657;SDS011;8462;53.156;8.220;2024-03-23T03:44:37;19.47;;;5.97;;
7657;SDS011;8462;53.156;8.220;2024-03-23T03:47:07;22.63;;;5.90;;
7657;SDS011;8462;53.156;8.220;2024-03-23T03:49:35;21.57;;;5.37;;
7657;SDS011;8462;53.156;8.220;2024-03-23T03:52:02;18.73;;;4.87;;
7657;SDS011;8462;53.156;8.220;2024-03-23T03:54:30;21.87;;;6.13;;
7657;SDS011;8462;53.156;8.220;2024-03-23T03:56:59;24.13;;;6.63;;
7657;SDS011;8462;53.156;8.220;2024-03-23T03:59:30;22.37;;;6.27;;
7657;SDS011;8462;53.156;8.220;2024-03-23T04:01:57;22.17;;;5.67;;
7657;SDS011;8462;53.156;8.220;2024-03-23T04:04:28;27.27;;;12.67;;
7657;SDS011;8462;53.156;8.220;2024-03-23T04:06:58;19.70;;;6.00;;
7657;SDS011;8462;53.156;8.220;2024-03-23T04:09:28;21.03;;;6.07;;
7657;SDS011;8462;53.156;8.220;2024-03-23T04:11:56;22.63;;;5.60;;
7657;SDS011;8462;53.156;8.220;2024-03-23T04:14:24;30.50;;;6.40;;
7657;SDS011;8462;53.156;8.220;2024-03-23T04:16:53;21.73;;;6.43;;
7657;SDS011;8462;53.156;8.220;2024-03-23T04:19:21;24.30;;;6.20;;
7657;SDS011;8462;53.156;8.220;2024-03-23T04:21:50;22.80;;;5.17;;
7657;SDS011;8462;53.156;8.220;2024-03-23T04:24:19;20.50;;;5.10;;
7657;SDS011;8462;53.156;8.220;2024-03-23T04:26:47;20.87;;;5.67;;
7657;SDS011;8462;53.156;8.220;2024-03-23T04:29:16;17.47;;;5.57;;
7657;SDS011;8462;53.156;8.220;2024-03-23T04:31:48;29.07;;;6.30;;
7657;SDS011;8462;53.156;8.220;2024-03-23T04:34:21;19.23;;;6.10;;
7657;SDS011;8462;53.156;8.220;2024-03-23T04:36:50;20.37;;;5.27;;
7657;SDS011;8462;53.156;8.220;2024-03-23T04:39:18;18.10;;;5.73;;
7657;SDS011;8462;53.156;8.220;2024-03-23T04:41:47;20.10;;;6.10;;
7657;SDS011;8462;53.156;8.220;2024-03-23T04:44:14;23.90;;;6.50;;
7657;SDS011;8462;53.156;8.220;2024-03-23T04:46:42;24.03;;;6.33;;
7657;SDS011;8462;53.156;8.220;2024-03-23T04:49:11;25.50;;;6.27;;
7657;SDS011;8462;53.156;8.220;2024-03-23T04:51:41;21.33;;;5.00;;
7657;SDS011;8462;53.156;8.220;2024-03-23T04:54:13;23.93;;;5.97;;
7657;SDS011;8462;53.156;8.220;2024-03-23T04:59:14;24.10;;;5.63;;
7657;SDS011;8462;53.156;8.220;2024-03-23T05:01:42;20.40;;;6.30;;
7657;SDS011;8462;53.156;8.220;2024-03-23T05:04:10;23.63;;;6.33;;
7657;SDS011;8462;53.156;8.220;2024-03-23T05:06:38;24.33;;;6.20;;
7657;SDS011;8462;53.156;8.220;2024-03-23T05:09:06;20.13;;;6.13;;
7657;SDS011;8462;53.156;8.220;2024-03-23T05:11:35;16.67;;;5.10;;
7657;SDS011;8462;53.156;8.220;2024-03-23T05:14:02;21.20;;;5.90;;
7657;SDS011;8462;53.156;8.220;2024-03-23T05:16:29;24.17;;;6.50;;
7657;SDS011;8462;53.156;8.220;2024-03-23T05:18:59;21.57;;;6.03;;
7657;SDS011;8462;53.156;8.220;2024-03-23T05:21:26;27.97;;;6.63;;
7657;SDS011;8462;53.156;8.220;2024-03-23T05:23:54;19.87;;;5.47;;
7657;SDS011;8462;53.156;8.220;2024-03-23T05:26:27;27.87;;;6.53;;
7657;SDS011;8462;53.156;8.220;2024-03-23T05:29:04;27.80;;;6.80;;
7657;SDS011;8462;53.156;8.220;2024-03-23T05:31:36;22.90;;;5.17;;
7657;SDS011;8462;53.156;8.220;2024-03-23T05:34:04;27.23;;;5.73;;
7657;SDS011;8462;53.156;8.220;2024-03-23T05:36:31;21.07;;;6.40;;
7657;SDS011;8462;53.156;8.220;2024-03-23T05:38:59;22.77;;;5.73;;
7657;SDS011;8462;53.156;8.220;2024-03-23T05:41:30;27.20;;;6.10;;
7657;SDS011;8462;53.156;8.220;2024-03-23T05:43:58;28.43;;;6.90;;
7657;SDS011;8462;53.156;8.220;2024-03-23T05:46:26;21.63;;;5.97;;
7657;SDS011;8462;53.156;8.220;2024-03-23T05:48:54;30.30;;;6.37;;
7657;SDS011;8462;53.156;8.220;2024-03-23T05:51:29;23.87;;;6.43;;
7657;SDS011;8462;53.156;8.220;2024-03-23T05:53:57;20.83;;;5.40;;
7657;SDS011;8462;53.156;8.220;2024-03-23T05:56:25;20.53;;;5.33;;
7657;SDS011;8462;53.156;8.220;2024-03-23T05:58:54;22.70;;;6.03;;
7657;SDS011;8462;53.156;8.220;2024-03-23T06:01:21;21.93;;;5.53;;
7657;SDS011;8462;53.156;8.220;2024-03-23T06:03:51;21.97;;;5.43;;
7657;SDS011;8462;53.156;8.220;2024-03-23T06:06:19;23.77;;;5.73;;
7657;SDS011;8462;53.156;8.220;2024-03-23T06:08:47;20.93;;;5.97;;
7657;SDS011;8462;53.156;8.220;2024-03-23T06:11:17;20.93;;;6.00;;
7657;SDS011;8462;53.156;8.220;2024-03-23T06:13:45;18.77;;;5.83;;
7657;SDS011;8462;53.156;8.220;2024-03-23T06:16:14;13.97;;;5.23;;
7657;SDS011;8462;53.156;8.220;2024-03-23T06:18:41;15.40;;;5.17;;
7657;SDS011;8462;53.156;8.220;2024-03-23T06:21:14;12.27;;;4.60;;
7657;SDS011;8462;53.156;8.220;2024-03-23T06:23:41;18.07;;;5.20;;
7657;SDS011;8462;53.156;8.220;2024-03-23T06:26:08;14.83;;;4.97;;
7657;SDS011;8462;53.156;8.220;2024-03-23T06:28:37;14.43;;;4.83;;
7657;SDS011;8462;53.156;8.220;2024-03-23T06:31:08;16.97;;;5.03;;
7657;SDS011;8462;53.156;8.220;2024-03-23T06:33:41;15.43;;;4.43;;
7657;SDS011;8462;53.156;8.220;2024-03-23T06:36:09;11.80;;;4.40;;
7657;SDS011;8462;53.156;8.220;2024-03-23T06:38:39;17.70;;;4.80;;
7657;SDS011;8462;53.156;8.220;2024-03-23T06:41:12;15.77;;;4.67;;
7657;SDS011;8462;53.156;8.220;2024-03-23T06:43:40;14.33;;;4.63;;
7657;SDS011;8462;53.156;8.220;2024-03-23T06:46:07;15.83;;;5.23;;
7657;SDS011;8462;53.156;8.220;2024-03-23T06:48:35;13.87;;;4.67;;
7657;SDS011;8462;53.156;8.220;2024-03-23T06:51:07;14.40;;;4.33;;
7657;SDS011;8462;53.156;8.220;2024-03-23T06:53:35;13.03;;;4.87;;
7657;SDS011;8462;53.156;8.220;2024-03-23T06:56:04;12.27;;;4.10;;
7657;SDS011;8462;53.156;8.220;2024-03-23T06:58:32;15.63;;;4.20;;
7657;SDS011;8462;53.156;8.220;2024-03-23T07:01:01;11.70;;;4.30;;
7657;SDS011;8462;53.156;8.220;2024-03-23T07:03:30;12.00;;;4.10;;
7657;SDS011;8462;53.156;8.220;2024-03-23T07:05:57;16.87;;;4.97;;
7657;SDS011;8462;53.156;8.220;2024-03-23T07:08:27;18.93;;;5.27;;
7657;SDS011;8462;53.156;8.220;2024-03-23T07:10:55;17.37;;;5.20;;
7657;SDS011;8462;53.156;8.220;2024-03-23T07:13:25;12.50;;;4.67;;
7657;SDS011;8462;53.156;8.220;2024-03-23T07:15:57;13.33;;;4.80;;
7657;SDS011;8462;53.156;8.220;2024-03-23T07:18:26;13.23;;;4.80;;
7657;SDS011;8462;53.156;8.220;2024-03-23T07:20:53;13.00;;;4.50;;
7657;SDS011;8462;53.156;8.220;2024-03-23T07:23:22;13.70;;;4.60;;
7657;SDS011;8462;53.156;8.220;2024-03-23T07:25:56;11.83;;;4.27;;
7657;SDS011;8462;53.156;8.220;2024-03-23T07:28:28;11.67;;;4.53;;
7657;SDS011;8462;53.156;8.220;2024-03-23T07:31:05;13.47;;;3.87;;
7657;SDS011;8462;53.156;8.220;2024-03-23T07:33:36;10.43;;;4.10;;
7657;SDS011;8462;53.156;8.220;2024-03-23T07:36:05;13.83;;;4.60;;
7657;SDS011;8462;53.156;8.220;2024-03-23T07:41:27;16.80;;;4.10;;
7657;SDS011;8462;53.156;8.220;2024-03-23T07:43:58;13.17;;;3.70;;
7657;SDS011;8462;53.156;8.220;2024-03-23T07:46:26;9.70;;;3.70;;
7657;SDS011;8462;53.156;8.220;2024-03-23T07:48:54;11.60;;;3.77;;
7657;SDS011;8462;53.156;8.220;2024-03-23T07:51:27;15.17;;;3.60;;
7657;SDS011;8462;53.156;8.220;2024-03-23T07:53:55;15.20;;;3.90;;
7657;SDS011;8462;53.156;8.220;2024-03-23T07:56:24;10.03;;;3.53;;
7657;SDS011;8462;53.156;8.220;2024-03-23T07:58:52;8.27;;;3.17;;
7657;SDS011;8462;53.156;8.220;2024-03-23T08:01:22;14.23;;;3.53;;
7657;SDS011;8462;53.156;8.220;2024-03-23T08:03:50;10.77;;;3.27;;
7657;SDS011;8462;53.156;8.220;2024-03-23T08:06:17;10.27;;;4.03;;
7657;SDS011;8462;53.156;8.220;2024-03-23T08:08:46;12.57;;;3.60;;
7657;SDS011;8462;53.156;8.220;2024-03-23T08:11:15;11.23;;;3.20;;
7657;SDS011;8462;53.156;8.220;2024-03-23T08:13:44;10.83;;;3.70;;
7657;SDS011;8462;53.156;8.220;2024-03-23T08:16:12;9.47;;;3.50;;
7657;SDS011;8462;53.156;8.220;2024-03-23T08:18:42;16.47;;;3.93;;
7657;SDS011;8462;53.156;8.220;2024-03-23T08:21:11;15.13;;;3.30;;
7657;SDS011;8462;53.156;8.220;2024-03-23T08:23:37;13.57;;;3.70;;
7657;SDS011;8462;53.156;8.220;2024-03-23T08:26:08;11.87;;;3.73;;
7657;SDS011;8462;53.156;8.220;2024-03-23T08:28:38;6.60;;;2.90;;
7657;SDS011;8462;53.156;8.220;2024-03-23T08:31:10;9.00;;;3.17;;
7657;SDS011;8462;53.156;8.220;2024-03-23T08:33:38;7.30;;;3.03;;
7657;SDS011;8462;53.156;8.220;2024-03-23T08:36:16;12.23;;;2.80;;
7657;SDS011;8462;53.156;8.220;2024-03-23T08:38:42;12.30;;;3.13;;
7657;SDS011;8462;53.156;8.220;2024-03-23T08:41:10;7.57;;;2.80;;
7657;SDS011;8462;53.156;8.220;2024-03-23T08:43:40;15.97;;;4.37;;
7657;SDS011;8462;53.156;8.220;2024-03-23T08:46:11;9.87;;;3.13;;
7657;SDS011;8462;53.156;8.220;2024-03-23T08:48:40;8.63;;;2.83;;
7657;SDS011;8462;53.156;8.220;2024-03-23T08:51:10;9.27;;;3.47;;
7657;SDS011;8462;53.156;8.220;2024-03-23T08:53:39;12.40;;;4.03;;
7657;SDS011;8462;53.156;8.220;2024-03-23T08:56:09;10.77;;;3.13;;
7657;SDS011;8462;53.156;8.220;2024-03-23T08:58:40;10.03;;;3.07;;
7657;SDS011;8462;53.156;8.220;2024-03-23T09:01:08;9.20;;;3.10;;
7657;SDS011;8462;53.156;8.220;2024-03-23T09:03:37;11.23;;;2.90;;
7657;SDS011;8462;53.156;8.220;2024-03-23T09:06:06;6.97;;;2.70;;
7657;SDS011;8462;53.156;8.220;2024-03-23T09:08:38;6.57;;;3.00;;
7657;SDS011;8462;53.156;8.220;2024-03-23T09:11:07;7.83;;;2.67;;
7657;SDS011;8462;53.156;8.220;2024-03-23T09:13:36;6.77;;;2.50;;
7657;SDS011;8462;53.156;8.220;2024-03-23T09:16:06;6.23;;;2.60;;
7657;SDS011;8462;53.156;8.220;2024-03-23T09:18:34;6.70;;;2.80;;
7657;SDS011;8462;53.156;8.220;2024-03-23T09:21:02;6.73;;;2.43;;
7657;SDS011;8462;53.156;8.220;2024-03-23T09:23:30;9.70;;;2.93;;
7657;SDS011;8462;53.156;8.220;2024-03-23T09:26:04;5.87;;;2.17;;
7657;SDS011;8462;53.156;8.220;2024-03-23T09:28:31;7.23;;;2.80;;
7657;SDS011;8462;53.156;8.220;2024-03-23T09:31:02;5.43;;;2.33;;
7657;SDS011;8462;53.156;8.220;2024-03-23T09:33:29;9.07;;;2.80;;
7657;SDS011;8462;53.156;8.220;2024-03-23T09:35:57;7.10;;;2.63;;
7657;SDS011;8462;53.156;8.220;2024-03-23T09:38:24;8.83;;;2.37;;
7657;SDS011;8462;53.156;8.220;2024-03-23T09:40:52;6.40;;;2.70;;
7657;SDS011;8462;53.156;8.220;2024-03-23T09:43:20;5.83;;;2.20;;
7657;SDS011;8462;53.156;8.220;2024-03-23T09:45:48;7.13;;;2.67;;
7657;SDS011;8462;53.156;8.220;2024-03-23T09:48:17;7.27;;;2.10;;
7657;SDS011;8462;53.156;8.220;2024-03-23T09:50:45;6.20;;;2.93;;
7657;SDS011;8462;53.156;8.220;2024-03-23T09:53:13;9.83;;;3.17;;
7657;SDS011;8462;53.156;8.220;2024-03-23T09:55:43;8.47;;;2.50;;
7657;SDS011;8462;53.156;8.220;2024-03-23T09:58:12;6.83;;;2.47;;
7657;SDS011;8462;53.156;8.220;2024-03-23T10:00:44;6.13;;;2.47;;
7657;SDS011;8462;53.156;8.220;2024-03-23T10:03:10;4.33;;;2.27;;
7657;SDS011;8462;53.156;8.220;2024-03-23T10:05:43;7.17;;;2.03;;
7657;SDS011;8462;53.156;8.220;2024-03-23T10:08:18;11.23;;;2.80;;
7657;SDS011;8462;53.156;8.220;2024-03-23T10:10:48;5.20;;;2.20;;
7657;SDS011;8462;53.156;8.220;2024-03-23T10:13:24;7.60;;;2.50;;
7657;SDS011;8462;53.156;8.220;2024-03-23T10:15:57;5.50;;;2.50;;
7657;SDS011;8462;53.156;8.220;2024-03-23T10:18:25;7.37;;;2.13;;
7657;SDS011;8462;53.156;8.220;2024-03-23T10:21:06;5.67;;;1.83;;
7657;SDS011;8462;53.156;8.220;2024-03-23T10:23:34;6.07;;;2.23;;
7657;SDS011;8462;53.156;8.220;2024-03-23T10:28:51;4.57;;;2.00;;
7657;SDS011;8462;53.156;8.220;2024-03-23T10:31:27;6.50;;;2.13;;
7657;SDS011;8462;53.156;8.220;2024-03-23T10:33:55;4.13;;;2.03;;
7657;SDS011;8462;53.156;8.220;2024-03-23T10:36:24;5.27;;;2.13;;
7657;SDS011;8462;53.156;8.220;2024-03-23T10:38:52;4.30;;;2.20;;
7657;SDS011;8462;53.156;8.220;2024-03-23T10:41:21;4.30;;;2.30;;
7657;SDS011;8462;53.156;8.220;2024-03-23T10:43:48;4.00;;;2.30;;
7657;SDS011;8462;53.156;8.220;2024-03-23T10:46:16;3.53;;;2.07;;
7657;SDS011;8462;53.156;8.220;2024-03-23T10:48:46;4.83;;;2.13;;
7657;SDS011;8462;53.156;8.220;2024-03-23T10:51:16;5.43;;;1.97;;
7657;SDS011;8462;53.156;8.220;2024-03-23T10:53:44;6.50;;;1.90;;
7657;SDS011;8462;53.156;8.220;2024-03-23T10:56:15;4.90;;;1.93;;
7657;SDS011;8462;53.156;8.220;2024-03-23T10:58:45;6.83;;;2.20;;
7657;SDS011;8462;53.156;8.220;2024-03-23T11:01:18;4.07;;;1.70;;
7657;SDS011;8462;53.156;8.220;2024-03-23T11:03:47;7.93;;;2.90;;
7657;SDS011;8462;53.156;8.220;2024-03-23T11:09:01;4.73;;;2.30;;
7657;SDS011;8462;53.156;8.220;2024-03-23T11:11:30;4.93;;;1.90;;
7657;SDS011;8462;53.156;8.220;2024-03-23T11:13:58;4.93;;;1.83;;
7657;SDS011;8462;53.156;8.220;2024-03-23T11:16:27;5.13;;;2.13;;
7657;SDS011;8462;53.156;8.220;2024-03-23T11:22:05;6.80;;;2.40;;
7657;SDS011;8462;53.156;8.220;2024-03-23T11:24:34;4.70;;;2.13;;
7657;SDS011;8462;53.156;8.220;2024-03-23T11:27:05;8.33;;;2.53;;
7657;SDS011;8462;53.156;8.220;2024-03-23T11:29:42;11.23;;;2.27;;
7657;SDS011;8462;53.156;8.220;2024-03-23T11:32:11;6.40;;;2.33;;
7657;SDS011;8462;53.156;8.220;2024-03-23T11:34:41;8.20;;;2.37;;
7657;SDS011;8462;53.156;8.220;2024-03-23T11:37:10;7.53;;;2.03;;
7657;SDS011;8462;53.156;8.220;2024-03-23T11:39:37;6.13;;;1.97;;
7657;SDS011;8462;53.156;8.220;2024-03-23T11:42:05;7.40;;;1.60;;
7657;SDS011;8462;53.156;8.220;2024-03-23T11:44:33;4.50;;;1.20;;
7657;SDS011;8462;53.156;8.220;2024-03-23T11:47:07;1.70;;;1.03;;
7657;SDS011;8462;53.156;8.220;2024-03-23T11:49:35;6.23;;;0.93;;
7657;SDS011;8462;53.156;8.220;2024-03-23T11:52:10;3.00;;;0.90;;
7657;SDS011;8462;53.156;8.220;2024-03-23T11:54:38;5.87;;;1.47;;
7657;SDS011;8462;53.156;8.220;2024-03-23T11:57:07;2.60;;;1.47;;
7657;SDS011;8462;53.156;8.220;2024-03-23T11:59:35;3.10;;;1.10;;
7657;SDS011;8462;53.156;8.220;2024-03-23T12:02:07;2.90;;;1.00;;
7657;SDS011;8462;53.156;8.220;2024-03-23T12:04:34;3.07;;;0.80;;
7657;SDS011;8462;53.156;8.220;2024-03-23T12:07:11;1.40;;;0.60;;
7657;SDS011;8462;53.156;8.220;2024-03-23T12:09:40;4.13;;;1.07;;
7657;SDS011;8462;53.156;8.220;2024-03-23T12:12:10;3.10;;;1.13;;
7657;SDS011;8462;53.156;8.220;2024-03-23T12:14:40;3.70;;;1.40;;
7657;SDS011;8462;53.156;8.220;2024-03-23T12:17:08;1.83;;;0.93;;
7657;SDS011;8462;53.156;8.220;2024-03-23T12:19:36;3.00;;;1.40;;
7657;SDS011;8462;53.156;8.220;2024-03-23T12:22:04;4.07;;;1.17;;
7657;SDS011;8462;53.156;8.220;2024-03-23T12:24:35;2.73;;;1.30;;
7657;SDS011;8462;53.156;8.220;2024-03-23T12:27:11;3.67;;;1.40;;
7657;SDS011;8462;53.156;8.220;2024-03-23T12:29:38;4.90;;;1.67;;
7657;SDS011;8462;53.156;8.220;2024-03-23T12:32:09;5.53;;;1.77;;
7657;SDS011;8462;53.156;8.220;2024-03-23T12:34:38;2.77;;;1.40;;
7657;SDS011;8462;53.156;8.220;2024-03-23T12:37:06;3.73;;;1.70;;
7657;SDS011;8462;53.156;8.220;2024-03-23T12:39:33;3.40;;;1.60;;
7657;SDS011;8462;53.156;8.220;2024-03-23T12:42:03;4.87;;;1.93;;
7657;SDS011;8462;53.156;8.220;2024-03-23T12:44:30;4.43;;;1.50;;
7657;SDS011;8462;53.156;8.220;2024-03-23T12:46:58;4.70;;;2.00;;
7657;SDS011;8462;53.156;8.220;2024-03-23T12:49:25;3.27;;;1.60;;
7657;SDS011;8462;53.156;8.220;2024-03-23T12:51:56;5.17;;;1.80;;
7657;SDS011;8462;53.156;8.220;2024-03-23T12:54:23;3.10;;;1.60;;
7657;SDS011;8462;53.156;8.220;2024-03-23T12:56:53;5.73;;;1.60;;
7657;SDS011;8462;53.156;8.220;2024-03-23T12:59:19;4.73;;;1.47;;
7657;SDS011;8462;53.156;8.220;2024-03-23T13:01:47;2.27;;;1.27;;
7657;SDS011;8462;53.156;8.220;2024-03-23T13:04:13;6.00;;;1.93;;
7657;SDS011;8462;53.156;8.220;2024-03-23T13:06:42;2.27;;;1.30;;
7657;SDS011;8462;53.156;8.220;2024-03-23T13:09:09;5.83;;;1.50;;
7657;SDS011;8462;53.156;8.220;2024-03-23T13:11:39;3.13;;;1.40;;
7657;SDS011;8462;53.156;8.220;2024-03-23T13:14:07;3.10;;;1.20;;
7657;SDS011;8462;53.156;8.220;2024-03-23T13:16:35;3.30;;;1.30;;
7657;SDS011;8462;53.156;8.220;2024-03-23T13:19:02;3.20;;;1.17;;
7657;SDS011;8462;53.156;8.220;2024-03-23T13:21:30;5.23;;;1.30;;
7657;SDS011;8462;53.156;8.220;2024-03-23T13:23:56;2.40;;;0.80;;
7657;SDS011;8462;53.156;8.220;2024-03-23T13:29:17;3.17;;;1.07;;
7657;SDS011;8462;53.156;8.220;2024-03-23T13:31:45;3.70;;;1.30;;
7657;SDS011;8462;53.156;8.220;2024-03-23T13:34:18;3.43;;;1.27;;
7657;SDS011;8462;53.156;8.220;2024-03-23T13:36:46;3.47;;;1.33;;
7657;SDS011;8462;53.156;8.220;2024-03-23T13:39:13;3.87;;;1.60;;
7657;SDS011;8462;53.156;8.220;2024-03-23T13:41:42;3.10;;;1.57;;
7657;SDS011;8462;53.156;8.220;2024-03-23T13:44:10;4.70;;;1.23;;
7657;SDS011;8462;53.156;8.220;2024-03-23T13:46:45;3.57;;;1.33;;
7657;SDS011;8462;53.156;8.220;2024-03-23T13:49:18;3.93;;;1.20;;
7657;SDS011;8462;53.156;8.220;2024-03-23T13:51:53;5.40;;;2.03;;
7657;SDS011;8462;53.156;8.220;2024-03-23T13:54:19;4.23;;;1.40;;
7657;SDS011;8462;53.156;8.220;2024-03-23T13:56:48;3.43;;;1.73;;
7657;SDS011;8462;53.156;8.220;2024-03-23T13:59:15;4.23;;;1.60;;
7657;SDS011;8462;53.156;8.220;2024-03-23T14:01:44;4.17;;;1.50;;
7657;SDS011;8462;53.156;8.220;2024-03-23T14:04:12;2.77;;;1.23;;
7657;SDS011;8462;53.156;8.220;2024-03-23T14:06:43;4.23;;;1.47;;
7657;SDS011;8462;53.156;8.220;2024-03-23T14:09:10;3.13;;;1.50;;
7657;SDS011;8462;53.156;8.220;2024-03-23T14:11:39;3.07;;;1.10;;
7657;SDS011;8462;53.156;8.220;2024-03-23T14:14:10;4.57;;;1.50;;
7657;SDS011;8462;53.156;8.220;2024-03-23T14:16:38;5.00;;;1.73;;
7657;SDS011;8462;53.156;8.220;2024-03-23T14:19:09;3.07;;;1.27;;
7657;SDS011;8462;53.156;8.220;2024-03-23T14:21:37;3.90;;;1.40;;
7657;SDS011;8462;53.156;8.220;2024-03-23T14:24:04;6.53;;;1.90;;
7657;SDS011;8462;53.156;8.220;2024-03-23T14:26:32;2.03;;;1.30;;
7657;SDS011;8462;53.156;8.220;2024-03-23T14:29:02;5.03;;;1.70;;
7657;SDS011;8462;53.156;8.220;2024-03-23T14:31:28;4.07;;;1.57;;
7657;SDS011;8462;53.156;8.220;2024-03-23T14:33:56;3.53;;;1.10;;
7657;SDS011;8462;53.156;8.220;2024-03-23T14:36:23;3.70;;;1.50;;
7657;SDS011;8462;53.156;8.220;2024-03-23T14:38:57;2.07;;;0.90;;
7657;SDS011;8462;53.156;8.220;2024-03-23T14:41:30;3.83;;;0.93;;
7657;SDS011;8462;53.156;8.220;2024-03-23T14:43:57;4.57;;;1.67;;
7657;SDS011;8462;53.156;8.220;2024-03-23T14:46:23;1.73;;;0.80;;
7657;SDS011;8462;53.156;8.220;2024-03-23T14:48:51;2.60;;;1.30;;
7657;SDS011;8462;53.156;8.220;2024-03-23T14:51:20;2.73;;;1.30;;
7657;SDS011;8462;53.156;8.220;2024-03-23T14:53:49;3.00;;;1.40;;
7657;SDS011;8462;53.156;8.220;2024-03-23T14:56:16;3.23;;;1.13;;
7657;SDS011;8462;53.156;8.220;2024-03-23T14:58:43;5.37;;;1.20;;
7657;SDS011;8462;53.156;8.220;2024-03-23T15:01:11;4.33;;;1.30;;
7657;SDS011;8462;53.156;8.220;2024-03-23T15:03:40;4.90;;;1.63;;
7657;SDS011;8462;53.156;8.220;2024-03-23T15:06:09;4.70;;;1.53;;
7657;SDS011;8462;53.156;8.220;2024-03-23T15:08:37;7.20;;;2.03;;
7657;SDS011;8462;53.156;8.220;2024-03-23T15:11:08;4.93;;;2.03;;
7657;SDS011;8462;53.156;8.220;2024-03-23T15:13:36;6.90;;;1.93;;
7657;SDS011;8462;53.156;8.220;2024-03-23T15:16:04;5.77;;;1.93;;
7657;SDS011;8462;53.156;8.220;2024-03-23T15:18:33;5.73;;;2.07;;
7657;SDS011;8462;53.156;8.220;2024-03-23T15:21:01;3.37;;;1.67;;
7657;SDS011;8462;53.156;8.220;2024-03-23T15:23:32;7.03;;;2.20;;
7657;SDS011;8462;53.156;8.220;2024-03-23T15:25:59;7.63;;;1.60;;
7657;SDS011;8462;53.156;8.220;2024-03-23T15:28:29;4.20;;;1.87;;
7657;SDS011;8462;53.156;8.220;2024-03-23T15:31:04;7.03;;;3.87;;
7657;SDS011;8462;53.156;8.220;2024-03-23T15:33:33;8.63;;;2.70;;
7657;SDS011;8462;53.156;8.220;2024-03-23T15:36:02;4.60;;;1.80;;
7657;SDS011;8462;53.156;8.220;2024-03-23T15:38:31;8.80;;;2.40;;
7657;SDS011;8462;53.156;8.220;2024-03-23T15:40:57;8.43;;;2.27;;
7657;SDS011;8462;53.156;8.220;2024-03-23T15:43:25;8.40;;;2.33;;
7657;SDS011;8462;53.156;8.220;2024-03-23T15:45:57;4.40;;;1.90;;
7657;SDS011;8462;53.156;8.220;2024-03-23T15:48:28;9.07;;;2.77;;
7657;SDS011;8462;53.156;8.220;2024-03-23T15:51:02;6.57;;;2.40;;
7657;SDS011;8462;53.156;8.220;2024-03-23T15:53:32;7.40;;;2.60;;
7657;SDS011;8462;53.156;8.220;2024-03-23T15:56:00;10.47;;;3.13;;
7657;SDS011;8462;53.156;8.220;2024-03-23T15:58:29;4.27;;;2.03;;
7657;SDS011;8462;53.156;8.220;2024-03-23T16:00:59;5.70;;;1.87;;
7657;SDS011;8462;53.156;8.220;2024-03-23T16:03:28;5.90;;;1.83;;
7657;SDS011;8462;53.156;8.220;2024-03-23T16:05:57;7.50;;;2.30;;
7657;SDS011;8462;53.156;8.220;2024-03-23T16:08:26;6.20;;;1.90;;
7657;SDS011;8462;53.156;8.220;2024-03-23T16:10:53;7.30;;;2.13;;
7657;SDS011;8462;53.156;8.220;2024-03-23T16:13:22;6.53;;;1.67;;
7657;SDS011;8462;53.156;8.220;2024-03-23T16:15:54;5.30;;;1.43;;
7657;SDS011;8462;53.156;8.220;2024-03-23T16:18:26;6.47;;;2.27;;
7657;SDS011;8462;53.156;8.220;2024-03-23T16:21:00;8.07;;;2.23;;
7657;SDS011;8462;53.156;8.220;2024-03-23T16:23:29;3.80;;;1.87;;
7657;SDS011;8462;53.156;8.220;2024-03-23T16:26:03;5.70;;;2.10;;
7657;SDS011;8462;53.156;8.220;2024-03-23T16:28:33;7.87;;;1.67;;
7657;SDS011;8462;53.156;8.220;2024-03-23T16:31:01;5.67;;;2.07;;
7657;SDS011;8462;53.156;8.220;2024-03-23T16:33:34;6.37;;;2.13;;